sensor_id;sensor_type;location;lat;lon;timestamp;pressure;altitude;pressure_sealevel;temperature;humidity
13593;BME280;6867;50.998;4.250;2023-02-28T00:00:29;102596.19;;;0.88;66.48
13593;BME280;6867;50.998;4.250;2023-02-28T00:02:56;102592.47;;;0.91;66.53
13593;BME280;6867;50.998;4.250;2023-02-28T00:05:25;102597.75;;;0.91;66.51
13593;BME280;6867;50.998;4.250;2023-02-28T00:07:52;102603.72;;;0.94;66.87
13593;BME280;6867;50.998;4.250;2023-02-28T00:10:20;102604.13;;;0.88;66.75
13593;BME280;6867;50.998;4.250;2023-02-28T00:12:50;102603.06;;;0.91;66.93
13593;BME280;6867;50.998;4.250;2023-02-28T00:15:18;102606.75;;;0.88;67.05
13593;BME280;6867;50.998;4.250;2023-02-28T00:17:45;102601.25;;;0.91;66.85
13593;BME280;6867;50.998;4.250;2023-02-28T00:20:12;102585.28;;;0.93;66.65
13593;BME280;6867;50.998;4.250;2023-02-28T00:22:42;102587.84;;;0.94;66.78
13593;BME280;6867;50.998;4.250;2023-02-28T00:25:11;102581.47;;;0.84;66.90
13593;BME280;6867;50.998;4.250;2023-02-28T00:27:38;102577.75;;;0.87;67.12
13593;BME280;6867;50.998;4.250;2023-02-28T00:30:10;102594.69;;;0.84;66.74
13593;BME280;6867;50.998;4.250;2023-02-28T00:32:37;102588.28;;;0.74;67.10
13593;BME280;6867;50.998;4.250;2023-02-28T00:35:04;102591.22;;;0.69;67.36
13593;BME280;6867;50.998;4.250;2023-02-28T00:37:31;102602.47;;;0.73;67.50
13593;BME280;6867;50.998;4.250;2023-02-28T00:39:58;102589.41;;;0.70;67.61
13593;BME280;6867;50.998;4.250;2023-02-28T00:42:27;102601.06;;;0.67;67.82
13593;BME280;6867;50.998;4.250;2023-02-28T00:44:53;102612.78;;;0.63;67.93
13593;BME280;6867;50.998;4.250;2023-02-28T00:47:21;102599.56;;;0.63;67.98
13593;BME280;6867;50.998;4.250;2023-02-28T00:49:48;102605.78;;;0.62;68.19
13593;BME280;6867;50.998;4.250;2023-02-28T00:52:15;102599.66;;;0.62;68.08
13593;BME280;6867;50.998;4.250;2023-02-28T00:54:41;102604.94;;;0.62;68.04
13593;BME280;6867;50.998;4.250;2023-02-28T00:57:08;102608.69;;;0.72;68.34
13593;BME280;6867;50.998;4.250;2023-02-28T00:59:35;102609.75;;;0.69;67.74
13593;BME280;6867;50.998;4.250;2023-02-28T01:02:02;102625.22;;;0.76;68.66
13593;BME280;6867;50.998;4.250;2023-02-28T01:04:30;102618.50;;;0.84;68.13
13593;BME280;6867;50.998;4.250;2023-02-28T01:06:56;102607.25;;;0.81;68.23
13593;BME280;6867;50.998;4.250;2023-02-28T01:09:23;102628.13;;;0.85;68.45
13593;BME280;6867;50.998;4.250;2023-02-28T01:11:50;102622.66;;;0.88;67.96
13593;BME280;6867;50.998;4.250;2023-02-28T01:14:17;102618.38;;;0.86;67.81
13593;BME280;6867;50.998;4.250;2023-02-28T01:16:44;102616.78;;;0.83;68.00
13593;BME280;6867;50.998;4.250;2023-02-28T01:19:11;102625.28;;;0.88;67.91
13593;BME280;6867;50.998;4.250;2023-02-28T01:21:39;102637.06;;;0.97;68.39
13593;BME280;6867;50.998;4.250;2023-02-28T01:24:06;102634.47;;;1.10;68.13
13593;BME280;6867;50.998;4.250;2023-02-28T01:26:33;102640.34;;;1.28;67.78
13593;BME280;6867;50.998;4.250;2023-02-28T01:29:00;102635.50;;;1.34;67.64
13593;BME280;6867;50.998;4.250;2023-02-28T01:31:26;102629.59;;;1.43;67.49
13593;BME280;6867;50.998;4.250;2023-02-28T01:33:53;102612.00;;;1.42;66.94
13593;BME280;6867;50.998;4.250;2023-02-28T01:36:22;102620.97;;;1.27;67.32
13593;BME280;6867;50.998;4.250;2023-02-28T01:38:50;102628.16;;;1.25;67.78
13593;BME280;6867;50.998;4.250;2023-02-28T01:41:19;102624.16;;;1.32;67.61
13593;BME280;6867;50.998;4.250;2023-02-28T01:43:59;102620.34;;;1.36;67.63
13593;BME280;6867;50.998;4.250;2023-02-28T01:46:28;102623.09;;;1.22;68.02
13593;BME280;6867;50.998;4.250;2023-02-28T01:48:59;102615.56;;;1.29;67.63
13593;BME280;6867;50.998;4.250;2023-02-28T01:51:33;102612.81;;;1.17;67.81
13593;BME280;6867;50.998;4.250;2023-02-28T01:54:05;102619.59;;;1.21;68.01
13593;BME280;6867;50.998;4.250;2023-02-28T01:56:41;102600.28;;;1.19;67.74
13593;BME280;6867;50.998;4.250;2023-02-28T01:59:12;102604.50;;;1.09;67.94
13593;BME280;6867;50.998;4.250;2023-02-28T02:01:40;102602.06;;;1.06;67.75
13593;BME280;6867;50.998;4.250;2023-02-28T02:04:06;102606.06;;;0.99;68.01
13593;BME280;6867;50.998;4.250;2023-02-28T02:06:37;102618.63;;;0.95;68.39
13593;BME280;6867;50.998;4.250;2023-02-28T02:09:05;102629.47;;;1.05;69.25
13593;BME280;6867;50.998;4.250;2023-02-28T02:11:33;102614.63;;;1.03;68.76
13593;BME280;6867;50.998;4.250;2023-02-28T02:14:22;102608.81;;;0.97;68.41
13593;BME280;6867;50.998;4.250;2023-02-28T02:17:01;102601.47;;;0.88;68.29
13593;BME280;6867;50.998;4.250;2023-02-28T02:23:18;102588.94;;;0.78;68.36
13593;BME280;6867;50.998;4.250;2023-02-28T02:25:54;102568.66;;;0.64;68.58
13593;BME280;6867;50.998;4.250;2023-02-28T02:28:36;102597.84;;;0.62;69.12
13593;BME280;6867;50.998;4.250;2023-02-28T02:31:41;102602.50;;;0.59;69.14
13593;BME280;6867;50.998;4.250;2023-02-28T02:34:43;102621.09;;;0.57;69.86
13593;BME280;6867;50.998;4.250;2023-02-28T02:37:24;102611.19;;;0.61;69.69
13593;BME280;6867;50.998;4.250;2023-02-28T02:40:02;102601.00;;;0.55;69.46
13593;BME280;6867;50.998;4.250;2023-02-28T02:42:36;102603.34;;;0.45;69.69
13593;BME280;6867;50.998;4.250;2023-02-28T02:45:09;102593.19;;;0.39;69.71
13593;BME280;6867;50.998;4.250;2023-02-28T02:47:39;102596.13;;;0.34;69.64
13593;BME280;6867;50.998;4.250;2023-02-28T02:50:12;102592.34;;;0.38;69.29
13593;BME280;6867;50.998;4.250;2023-02-28T02:52:45;102583.19;;;0.30;69.36
13593;BME280;6867;50.998;4.250;2023-02-28T02:55:15;102588.66;;;0.27;69.80
13593;BME280;6867;50.998;4.250;2023-02-28T02:57:46;102592.56;;;0.21;69.95
13593;BME280;6867;50.998;4.250;2023-02-28T03:00:16;102595.28;;;0.19;70.01
13593;BME280;6867;50.998;4.250;2023-02-28T03:02:45;102598.97;;;0.17;69.63
13593;BME280;6867;50.998;4.250;2023-02-28T03:05:19;102594.81;;;0.13;69.96
13593;BME280;6867;50.998;4.250;2023-02-28T03:07:46;102594.22;;;0.08;69.78
13593;BME280;6867;50.998;4.250;2023-02-28T03:10:28;102595.00;;;0.10;70.44
13593;BME280;6867;50.998;4.250;2023-02-28T03:13:11;102611.59;;;0.12;70.57
13593;BME280;6867;50.998;4.250;2023-02-28T03:15:50;102598.00;;;0.04;70.59
13593;BME280;6867;50.998;4.250;2023-02-28T03:18:24;102599.06;;;0.01;70.14
13593;BME280;6867;50.998;4.250;2023-02-28T03:21:03;102606.31;;;-0.03;70.15
13593;BME280;6867;50.998;4.250;2023-02-28T03:23:38;102605.56;;;-0.05;70.21
13593;BME280;6867;50.998;4.250;2023-02-28T03:26:16;102606.50;;;-0.06;70.55
13593;BME280;6867;50.998;4.250;2023-02-28T03:28:51;102614.81;;;-0.12;70.46
13593;BME280;6867;50.998;4.250;2023-02-28T03:31:24;102606.13;;;-0.14;70.69
13593;BME280;6867;50.998;4.250;2023-02-28T03:33:58;102608.59;;;-0.11;70.74
13593;BME280;6867;50.998;4.250;2023-02-28T03:36:29;102608.88;;;-0.15;70.91
13593;BME280;6867;50.998;4.250;2023-02-28T03:38:59;102618.75;;;-0.05;71.14
13593;BME280;6867;50.998;4.250;2023-02-28T03:41:31;102615.19;;;-0.04;71.23
13593;BME280;6867;50.998;4.250;2023-02-28T03:44:03;102608.47;;;-0.09;70.35
13593;BME280;6867;50.998;4.250;2023-02-28T03:46:36;102616.50;;;-0.11;71.37
13593;BME280;6867;50.998;4.250;2023-02-28T03:49:11;102627.34;;;-0.01;70.93
13593;BME280;6867;50.998;4.250;2023-02-28T03:51:43;102620.56;;;-0.05;70.75
13593;BME280;6867;50.998;4.250;2023-02-28T03:54:15;102624.25;;;0.07;70.81
13593;BME280;6867;50.998;4.250;2023-02-28T03:56:46;102620.88;;;0.05;70.82
13593;BME280;6867;50.998;4.250;2023-02-28T03:59:18;102614.06;;;0.01;70.48
13593;BME280;6867;50.998;4.250;2023-02-28T04:01:48;102606.69;;;-0.09;71.06
13593;BME280;6867;50.998;4.250;2023-02-28T04:04:16;102619.44;;;-0.15;71.13
13593;BME280;6867;50.998;4.250;2023-02-28T04:06:44;102620.28;;;-0.15;70.83
13593;BME280;6867;50.998;4.250;2023-02-28T04:09:13;102605.84;;;-0.23;70.96
13593;BME280;6867;50.998;4.250;2023-02-28T04:11:42;102615.63;;;-0.26;70.97
13593;BME280;6867;50.998;4.250;2023-02-28T04:14:10;102613.19;;;-0.29;71.59
13593;BME280;6867;50.998;4.250;2023-02-28T04:16:39;102605.16;;;-0.27;71.21
13593;BME280;6867;50.998;4.250;2023-02-28T04:19:07;102608.84;;;-0.30;71.30
13593;BME280;6867;50.998;4.250;2023-02-28T04:21:35;102611.22;;;-0.25;71.76
13593;BME280;6867;50.998;4.250;2023-02-28T04:24:06;102611.97;;;-0.23;71.13
13593;BME280;6867;50.998;4.250;2023-02-28T04:26:35;102614.59;;;-0.23;71.17
13593;BME280;6867;50.998;4.250;2023-02-28T04:29:04;102613.66;;;-0.22;71.71
13593;BME280;6867;50.998;4.250;2023-02-28T04:31:31;102629.34;;;-0.19;71.16
13593;BME280;6867;50.998;4.250;2023-02-28T04:33:58;102642.53;;;-0.05;71.97
13593;BME280;6867;50.998;4.250;2023-02-28T04:36:25;102656.53;;;0.12;72.22
13593;BME280;6867;50.998;4.250;2023-02-28T04:38:52;102658.25;;;0.27;71.58
13593;BME280;6867;50.998;4.250;2023-02-28T04:41:20;102665.50;;;0.52;71.61
13593;BME280;6867;50.998;4.250;2023-02-28T04:43:48;102658.13;;;0.57;71.32
13593;BME280;6867;50.998;4.250;2023-02-28T04:46:14;102665.00;;;0.74;71.38
13593;BME280;6867;50.998;4.250;2023-02-28T04:48:42;102659.88;;;0.85;70.61
13593;BME280;6867;50.998;4.250;2023-02-28T04:51:11;102661.44;;;1.02;71.02
13593;BME280;6867;50.998;4.250;2023-02-28T04:53:39;102738.56;;;1.64;72.52
13593;BME280;6867;50.998;4.250;2023-02-28T04:56:07;102697.47;;;1.71;71.72
13593;BME280;6867;50.998;4.250;2023-02-28T04:58:35;102687.50;;;1.75;71.15
13593;BME280;6867;50.998;4.250;2023-02-28T05:01:04;102676.28;;;1.84;71.02
13593;BME280;6867;50.998;4.250;2023-02-28T05:03:38;102657.50;;;1.87;70.70
13593;BME280;6867;50.998;4.250;2023-02-28T05:06:06;102646.06;;;1.87;70.38
13593;BME280;6867;50.998;4.250;2023-02-28T05:08:32;102639.59;;;1.91;70.04
13593;BME280;6867;50.998;4.250;2023-02-28T05:11:00;102636.94;;;1.91;69.90
13593;BME280;6867;50.998;4.250;2023-02-28T05:13:27;102640.97;;;1.96;69.91
13593;BME280;6867;50.998;4.250;2023-02-28T05:15:56;102633.34;;;2.05;69.41
13593;BME280;6867;50.998;4.250;2023-02-28T05:18:22;102621.06;;;2.04;69.38
13593;BME280;6867;50.998;4.250;2023-02-28T05:20:49;102622.44;;;2.09;69.55
13593;BME280;6867;50.998;4.250;2023-02-28T05:23:17;102611.41;;;2.15;69.36
13593;BME280;6867;50.998;4.250;2023-02-28T05:25:45;102606.53;;;2.22;69.09
13593;BME280;6867;50.998;4.250;2023-02-28T05:28:12;102603.88;;;2.22;68.58
13593;BME280;6867;50.998;4.250;2023-02-28T05:30:39;102602.78;;;2.24;68.51
13593;BME280;6867;50.998;4.250;2023-02-28T05:33:11;102598.25;;;2.27;68.70
13593;BME280;6867;50.998;4.250;2023-02-28T05:35:38;102608.84;;;2.27;68.59
13593;BME280;6867;50.998;4.250;2023-02-28T05:38:05;102599.94;;;2.28;68.32
13593;BME280;6867;50.998;4.250;2023-02-28T05:40:32;102605.66;;;2.34;68.36
13593;BME280;6867;50.998;4.250;2023-02-28T05:42:59;102600.94;;;2.38;68.55
13593;BME280;6867;50.998;4.250;2023-02-28T05:45:26;102591.75;;;2.31;68.25
13593;BME280;6867;50.998;4.250;2023-02-28T05:47:53;102604.16;;;2.43;68.13
13593;BME280;6867;50.998;4.250;2023-02-28T05:50:22;102578.91;;;2.37;67.46
13593;BME280;6867;50.998;4.250;2023-02-28T05:52:49;102581.81;;;2.58;67.43
13593;BME280;6867;50.998;4.250;2023-02-28T05:55:16;102563.78;;;2.50;67.16
13593;BME280;6867;50.998;4.250;2023-02-28T05:57:43;102568.44;;;2.60;66.71
13593;BME280;6867;50.998;4.250;2023-02-28T06:00:11;102566.50;;;2.62;66.91
13593;BME280;6867;50.998;4.250;2023-02-28T06:02:40;102568.44;;;2.60;66.83
13593;BME280;6867;50.998;4.250;2023-02-28T06:05:09;102574.53;;;2.73;66.34
13593;BME280;6867;50.998;4.250;2023-02-28T06:07:40;102559.88;;;2.80;65.85
13593;BME280;6867;50.998;4.250;2023-02-28T06:10:08;102556.25;;;2.81;66.19
13593;BME280;6867;50.998;4.250;2023-02-28T06:12:34;102562.97;;;2.74;66.28
13593;BME280;6867;50.998;4.250;2023-02-28T06:15:01;102564.78;;;2.73;66.20
13593;BME280;6867;50.998;4.250;2023-02-28T06:17:28;102545.84;;;2.54;66.20
13593;BME280;6867;50.998;4.250;2023-02-28T06:19:55;102549.63;;;2.63;65.83
13593;BME280;6867;50.998;4.250;2023-02-28T06:22:24;102548.28;;;2.81;65.43
13593;BME280;6867;50.998;4.250;2023-02-28T06:24:52;102551.09;;;2.91;65.06
13593;BME280;6867;50.998;4.250;2023-02-28T06:27:20;102543.47;;;2.86;65.26
13593;BME280;6867;50.998;4.250;2023-02-28T06:29:47;102535.41;;;2.88;64.91
13593;BME280;6867;50.998;4.250;2023-02-28T06:32:14;102537.34;;;2.86;65.08
13593;BME280;6867;50.998;4.250;2023-02-28T06:34:40;102519.66;;;3.09;64.11
13593;BME280;6867;50.998;4.250;2023-02-28T06:37:07;102502.78;;;3.10;64.07
13593;BME280;6867;50.998;4.250;2023-02-28T06:39:34;102512.72;;;3.19;64.05
13593;BME280;6867;50.998;4.250;2023-02-28T06:42:02;102522.31;;;3.09;63.76
13593;BME280;6867;50.998;4.250;2023-02-28T06:44:29;102520.38;;;2.99;63.82
13593;BME280;6867;50.998;4.250;2023-02-28T06:47:00;102520.78;;;3.17;63.45
13593;BME280;6867;50.998;4.250;2023-02-28T06:49:28;102515.47;;;3.17;63.33
13593;BME280;6867;50.998;4.250;2023-02-28T06:51:55;102530.72;;;3.27;63.85
13593;BME280;6867;50.998;4.250;2023-02-28T06:54:22;102509.72;;;3.35;63.19
13593;BME280;6867;50.998;4.250;2023-02-28T06:56:49;102498.00;;;3.37;62.78
13593;BME280;6867;50.998;4.250;2023-02-28T06:59:17;102512.50;;;3.44;63.17
13593;BME280;6867;50.998;4.250;2023-02-28T07:01:44;102506.34;;;3.33;63.22
13593;BME280;6867;50.998;4.250;2023-02-28T07:04:10;102513.22;;;3.46;63.08
13593;BME280;6867;50.998;4.250;2023-02-28T07:06:38;102513.97;;;3.48;62.25
13593;BME280;6867;50.998;4.250;2023-02-28T07:09:05;102531.97;;;3.56;63.18
13593;BME280;6867;50.998;4.250;2023-02-28T07:11:32;102523.50;;;3.51;63.04
13593;BME280;6867;50.998;4.250;2023-02-28T07:13:58;102516.28;;;3.64;62.47
13593;BME280;6867;50.998;4.250;2023-02-28T07:16:27;102516.41;;;3.74;61.73
13593;BME280;6867;50.998;4.250;2023-02-28T07:18:53;102521.00;;;3.94;62.50
13593;BME280;6867;50.998;4.250;2023-02-28T07:21:21;102485.00;;;4.02;61.66
13593;BME280;6867;50.998;4.250;2023-02-28T07:23:48;102479.38;;;4.16;61.52
13593;BME280;6867;50.998;4.250;2023-02-28T07:26:16;102465.59;;;4.22;60.19
13593;BME280;6867;50.998;4.250;2023-02-28T07:28:47;102483.41;;;4.54;60.99
13593;BME280;6867;50.998;4.250;2023-02-28T07:31:15;102456.56;;;4.78;59.51
13593;BME280;6867;50.998;4.250;2023-02-28T07:33:43;102462.06;;;4.65;59.78
13593;BME280;6867;50.998;4.250;2023-02-28T07:36:13;102456.78;;;4.86;59.13
13593;BME280;6867;50.998;4.250;2023-02-28T07:38:41;102458.00;;;4.82;59.14
13593;BME280;6867;50.998;4.250;2023-02-28T07:41:08;102429.16;;;4.87;58.39
13593;BME280;6867;50.998;4.250;2023-02-28T07:43:34;102434.81;;;4.93;59.27
13593;BME280;6867;50.998;4.250;2023-02-28T07:46:02;102408.91;;;4.95;58.44
13593;BME280;6867;50.998;4.250;2023-02-28T07:48:29;102399.66;;;4.99;58.38
13593;BME280;6867;50.998;4.250;2023-02-28T07:50:58;102413.72;;;5.32;57.69
13593;BME280;6867;50.998;4.250;2023-02-28T07:53:26;102390.09;;;5.18;57.13
13593;BME280;6867;50.998;4.250;2023-02-28T07:55:55;102384.28;;;5.34;56.66
13593;BME280;6867;50.998;4.250;2023-02-28T07:58:22;102371.00;;;5.43;56.23
13593;BME280;6867;50.998;4.250;2023-02-28T08:00:48;102347.72;;;5.45;55.62
13593;BME280;6867;50.998;4.250;2023-02-28T08:03:16;102340.88;;;5.62;55.18
13593;BME280;6867;50.998;4.250;2023-02-28T08:05:43;102346.78;;;5.56;55.32
13593;BME280;6867;50.998;4.250;2023-02-28T08:08:11;102355.78;;;5.84;55.27
13593;BME280;6867;50.998;4.250;2023-02-28T08:10:38;102333.03;;;5.61;55.51
13593;BME280;6867;50.998;4.250;2023-02-28T08:13:04;102318.41;;;5.45;54.69
13593;BME280;6867;50.998;4.250;2023-02-28T08:15:31;102273.38;;;5.52;53.80
13593;BME280;6867;50.998;4.250;2023-02-28T08:17:58;102291.91;;;5.54;53.75
13593;BME280;6867;50.998;4.250;2023-02-28T08:20:25;102285.88;;;5.71;53.98
13593;BME280;6867;50.998;4.250;2023-02-28T08:22:52;102303.00;;;5.68;54.18
13593;BME280;6867;50.998;4.250;2023-02-28T08:25:21;102283.66;;;5.86;53.87
13593;BME280;6867;50.998;4.250;2023-02-28T08:27:47;102281.97;;;5.65;53.32
13593;BME280;6867;50.998;4.250;2023-02-28T08:30:16;102254.31;;;5.57;53.02
13593;BME280;6867;50.998;4.250;2023-02-28T08:32:43;102237.59;;;5.55;52.71
13593;BME280;6867;50.998;4.250;2023-02-28T08:35:10;102207.19;;;5.57;51.58
13593;BME280;6867;50.998;4.250;2023-02-28T08:37:36;102235.38;;;5.89;51.65
13593;BME280;6867;50.998;4.250;2023-02-28T08:40:04;102183.44;;;5.64;51.43
13593;BME280;6867;50.998;4.250;2023-02-28T08:42:33;102177.56;;;5.41;51.06
13593;BME280;6867;50.998;4.250;2023-02-28T08:44:59;102163.81;;;5.74;50.25
13593;BME280;6867;50.998;4.250;2023-02-28T08:47:26;102171.78;;;5.84;50.48
13593;BME280;6867;50.998;4.250;2023-02-28T08:49:53;102084.84;;;5.54;49.19
13593;BME280;6867;50.998;4.250;2023-02-28T08:52:19;102101.38;;;5.77;49.06
13593;BME280;6867;50.998;4.250;2023-02-28T08:54:46;102121.75;;;6.25;48.06
13593;BME280;6867;50.998;4.250;2023-02-28T08:57:13;102038.84;;;5.89;46.91
13593;BME280;6867;50.998;4.250;2023-02-28T08:59:41;102026.75;;;6.05;46.79
13593;BME280;6867;50.998;4.250;2023-02-28T09:02:08;102049.00;;;6.23;46.63
13593;BME280;6867;50.998;4.250;2023-02-28T09:04:36;102070.50;;;6.21;47.33
13593;BME280;6867;50.998;4.250;2023-02-28T09:07:02;102027.50;;;6.52;45.85
13593;BME280;6867;50.998;4.250;2023-02-28T09:09:29;102027.56;;;6.60;45.51
13593;BME280;6867;50.998;4.250;2023-02-28T09:11:56;102026.59;;;6.79;45.17
13593;BME280;6867;50.998;4.250;2023-02-28T09:14:23;102047.03;;;6.88;45.05
13593;BME280;6867;50.998;4.250;2023-02-28T09:16:51;102022.94;;;6.62;45.40
13593;BME280;6867;50.998;4.250;2023-02-28T09:19:18;102033.25;;;7.11;44.50
13593;BME280;6867;50.998;4.250;2023-02-28T09:21:44;102080.69;;;7.35;45.84
13593;BME280;6867;50.998;4.250;2023-02-28T09:24:11;102023.31;;;7.47;44.84
13593;BME280;6867;50.998;4.250;2023-02-28T09:26:39;101999.47;;;7.28;44.01
13593;BME280;6867;50.998;4.250;2023-02-28T09:29:06;101964.78;;;6.92;43.81
13593;BME280;6867;50.998;4.250;2023-02-28T09:31:33;102007.31;;;7.29;43.96
13593;BME280;6867;50.998;4.250;2023-02-28T09:34:03;102019.44;;;7.67;43.24
13593;BME280;6867;50.998;4.250;2023-02-28T09:36:30;101984.63;;;7.93;42.51
13593;BME280;6867;50.998;4.250;2023-02-28T09:38:58;101960.63;;;8.18;41.94
13593;BME280;6867;50.998;4.250;2023-02-28T09:41:26;101874.88;;;7.77;41.03
13593;BME280;6867;50.998;4.250;2023-02-28T09:43:57;101774.13;;;6.93;40.09
13593;BME280;6867;50.998;4.250;2023-02-28T09:46:29;101824.41;;;6.97;40.90
13593;BME280;6867;50.998;4.250;2023-02-28T09:48:58;101812.22;;;6.25;41.86
13593;BME280;6867;50.998;4.250;2023-02-28T09:51:36;101778.09;;;6.11;41.52
13593;BME280;6867;50.998;4.250;2023-02-28T09:54:05;101798.13;;;6.15;41.31
13593;BME280;6867;50.998;4.250;2023-02-28T09:56:37;101860.94;;;6.27;42.04
13593;BME280;6867;50.998;4.250;2023-02-28T09:59:10;101853.75;;;6.10;42.55
13593;BME280;6867;50.998;4.250;2023-02-28T10:01:45;101888.66;;;6.34;42.43
13593;BME280;6867;50.998;4.250;2023-02-28T10:04:23;101856.78;;;5.97;42.80
13593;BME280;6867;50.998;4.250;2023-02-28T10:07:02;101896.75;;;6.24;42.99
13593;BME280;6867;50.998;4.250;2023-02-28T10:09:33;101842.19;;;6.19;41.70
13593;BME280;6867;50.998;4.250;2023-02-28T10:12:04;101870.75;;;6.44;41.94
13593;BME280;6867;50.998;4.250;2023-02-28T10:14:33;101880.91;;;6.41;41.82
13593;BME280;6867;50.998;4.250;2023-02-28T10:17:03;101879.22;;;6.58;41.55
13593;BME280;6867;50.998;4.250;2023-02-28T10:19:34;101834.22;;;6.45;41.15
13593;BME280;6867;50.998;4.250;2023-02-28T10:22:05;101840.72;;;6.24;41.64
13593;BME280;6867;50.998;4.250;2023-02-28T10:24:39;101847.53;;;6.19;41.73
13593;BME280;6867;50.998;4.250;2023-02-28T10:27:14;101806.81;;;5.99;41.27
13593;BME280;6867;50.998;4.250;2023-02-28T10:29:43;101846.06;;;6.24;41.40
13593;BME280;6867;50.998;4.250;2023-02-28T10:32:15;101826.28;;;6.35;41.57
13593;BME280;6867;50.998;4.250;2023-02-28T10:34:42;101892.94;;;6.63;41.85
13593;BME280;6867;50.998;4.250;2023-02-28T10:37:11;101882.69;;;6.76;41.46
13593;BME280;6867;50.998;4.250;2023-02-28T10:39:41;101855.97;;;6.50;41.60
13593;BME280;6867;50.998;4.250;2023-02-28T10:42:23;101842.19;;;6.63;41.37
13593;BME280;6867;50.998;4.250;2023-02-28T10:45:05;101769.88;;;6.30;40.88
13593;BME280;6867;50.998;4.250;2023-02-28T10:47:33;101782.34;;;6.47;40.15
13593;BME280;6867;50.998;4.250;2023-02-28T10:50:02;101795.91;;;6.54;40.27
13593;BME280;6867;50.998;4.250;2023-02-28T10:52:38;101784.97;;;6.39;40.31
13593;BME280;6867;50.998;4.250;2023-02-28T10:55:21;101764.00;;;6.27;40.40
13593;BME280;6867;50.998;4.250;2023-02-28T10:57:49;101767.22;;;6.30;40.53
13593;BME280;6867;50.998;4.250;2023-02-28T11:00:17;101726.63;;;6.01;40.28
13593;BME280;6867;50.998;4.250;2023-02-28T11:02:45;101777.53;;;6.25;40.42
13593;BME280;6867;50.998;4.250;2023-02-28T11:05:26;101704.75;;;6.15;39.42
13593;BME280;6867;50.998;4.250;2023-02-28T11:07:56;101732.94;;;6.43;39.23
13593;BME280;6867;50.998;4.250;2023-02-28T11:10:26;101718.81;;;6.51;38.90
13593;BME280;6867;50.998;4.250;2023-02-28T11:12:56;101800.50;;;6.62;40.23
13593;BME280;6867;50.998;4.250;2023-02-28T11:15:26;101739.53;;;6.83;38.82
13593;BME280;6867;50.998;4.250;2023-02-28T11:17:54;101644.50;;;6.72;37.51
13593;BME280;6867;50.998;4.250;2023-02-28T11:20:23;101656.81;;;6.57;37.87
13593;BME280;6867;50.998;4.250;2023-02-28T11:22:51;101647.56;;;6.52;38.00
13593;BME280;6867;50.998;4.250;2023-02-28T11:25:23;101650.50;;;6.66;37.43
13593;BME280;6867;50.998;4.250;2023-02-28T11:27:53;101592.00;;;6.47;36.74
13593;BME280;6867;50.998;4.250;2023-02-28T11:30:31;101640.50;;;6.77;37.47
13593;BME280;6867;50.998;4.250;2023-02-28T11:32:58;101698.69;;;6.99;37.58
13593;BME280;6867;50.998;4.250;2023-02-28T11:35:28;101618.03;;;6.87;36.56
13593;BME280;6867;50.998;4.250;2023-02-28T11:37:57;101690.47;;;6.92;37.88
13593;BME280;6867;50.998;4.250;2023-02-28T11:40:35;101690.34;;;7.02;37.50
13593;BME280;6867;50.998;4.250;2023-02-28T11:43:11;101683.09;;;7.29;36.83
13593;BME280;6867;50.998;4.250;2023-02-28T11:45:48;101567.25;;;6.79;36.45
13593;BME280;6867;50.998;4.250;2023-02-28T11:48:21;101667.47;;;6.99;37.18
13593;BME280;6867;50.998;4.250;2023-02-28T11:50:57;101714.66;;;7.25;37.82
13593;BME280;6867;50.998;4.250;2023-02-28T11:53:39;101714.50;;;7.43;37.36
13593;BME280;6867;50.998;4.250;2023-02-28T11:56:16;101666.66;;;7.07;37.18
13593;BME280;6867;50.998;4.250;2023-02-28T11:58:51;101655.00;;;7.16;36.50
13593;BME280;6867;50.998;4.250;2023-02-28T12:01:32;101653.69;;;7.20;36.68
13593;BME280;6867;50.998;4.250;2023-02-28T12:04:14;101663.19;;;7.31;37.30
13593;BME280;6867;50.998;4.250;2023-02-28T12:06:47;101745.44;;;7.45;38.19
13593;BME280;6867;50.998;4.250;2023-02-28T12:09:28;101675.41;;;7.34;37.36
13593;BME280;6867;50.998;4.250;2023-02-28T12:12:06;101677.59;;;7.46;37.38
13593;BME280;6867;50.998;4.250;2023-02-28T12:14:53;101702.34;;;7.48;37.52
13593;BME280;6867;50.998;4.250;2023-02-28T12:17:32;101660.25;;;7.83;35.88
13593;BME280;6867;50.998;4.250;2023-02-28T12:20:12;101684.47;;;7.57;37.15
13593;BME280;6867;50.998;4.250;2023-02-28T12:22:49;101624.28;;;7.20;36.96
13593;BME280;6867;50.998;4.250;2023-02-28T12:25:37;101629.81;;;7.68;35.73
13593;BME280;6867;50.998;4.250;2023-02-28T12:28:13;101705.19;;;7.63;37.36
13593;BME280;6867;50.998;4.250;2023-02-28T12:30:47;101656.91;;;7.57;37.14
13593;BME280;6867;50.998;4.250;2023-02-28T12:33:17;101607.09;;;7.64;36.01
13593;BME280;6867;50.998;4.250;2023-02-28T12:35:51;101699.03;;;7.71;37.76
13593;BME280;6867;50.998;4.250;2023-02-28T12:38:22;101619.09;;;7.92;35.81
13593;BME280;6867;50.998;4.250;2023-02-28T12:40:54;101640.38;;;7.69;36.56
13593;BME280;6867;50.998;4.250;2023-02-28T12:43:27;101587.53;;;7.63;36.18
13593;BME280;6867;50.998;4.250;2023-02-28T12:45:59;101678.59;;;8.11;36.55
13593;BME280;6867;50.998;4.250;2023-02-28T12:48:36;101640.63;;;8.23;35.95
13593;BME280;6867;50.998;4.250;2023-02-28T12:51:05;101553.34;;;7.98;35.03
13593;BME280;6867;50.998;4.250;2023-02-28T12:53:41;101554.81;;;7.53;36.03
13593;BME280;6867;50.998;4.250;2023-02-28T12:56:17;101621.13;;;7.66;36.59
13593;BME280;6867;50.998;4.250;2023-02-28T12:58:50;101541.44;;;7.29;35.32
13593;BME280;6867;50.998;4.250;2023-02-28T13:01:33;101569.66;;;7.07;35.81
13593;BME280;6867;50.998;4.250;2023-02-28T13:07:31;101608.09;;;7.63;35.32
13593;BME280;6867;50.998;4.250;2023-02-28T13:10:03;101642.84;;;7.71;36.21
13593;BME280;6867;50.998;4.250;2023-02-28T13:12:35;101589.69;;;7.76;35.46
13593;BME280;6867;50.998;4.250;2023-02-28T13:15:06;101576.63;;;7.89;34.97
13593;BME280;6867;50.998;4.250;2023-02-28T13:17:38;101620.88;;;8.24;35.27
13593;BME280;6867;50.998;4.250;2023-02-28T13:20:15;101600.19;;;7.94;35.37
13593;BME280;6867;50.998;4.250;2023-02-28T13:22:43;101596.00;;;7.99;35.09
13593;BME280;6867;50.998;4.250;2023-02-28T13:31:20;101642.81;;;8.20;35.25
13593;BME280;6867;50.998;4.250;2023-02-28T13:34:06;101657.84;;;8.29;35.80
13593;BME280;6867;50.998;4.250;2023-02-28T13:36:38;101594.28;;;8.15;35.28
13593;BME280;6867;50.998;4.250;2023-02-28T13:39:47;101591.75;;;8.38;34.83